sensor_id;sensor_type;location;lat;lon;timestamp;temperature;humidity
45849;DHT22;31567;54.600;9.842;2022-11-15T00:00:37;9.70;99.90
45849;DHT22;31567;54.600;9.842;2022-11-15T00:04:16;9.80;99.90
45849;DHT22;31567;54.600;9.842;2022-11-15T00:07:57;9.70;99.90
45849;DHT22;31567;54.600;9.842;2022-11-15T00:11:36;9.80;99.90
45849;DHT22;31567;54.600;9.842;2022-11-15T00:15:16;9.80;99.90
45849;DHT22;31567;54.600;9.842;2022-11-15T00:18:55;9.80;99.90
45849;DHT22;31567;54.600;9.842;2022-11-15T00:22:36;9.80;99.90
45849;DHT22;31567;54.600;9.842;2022-11-15T00:26:16;9.90;99.90
45849;DHT22;31567;54.600;9.842;2022-11-15T00:29:55;9.90;99.90
45849;DHT22;31567;54.600;9.842;2022-11-15T00:33:35;9.90;99.90
45849;DHT22;31567;54.600;9.842;2022-11-15T00:37:14;10.00;99.90
45849;DHT22;31567;54.600;9.842;2022-11-15T00:40:54;9.90;99.90
45849;DHT22;31567;54.600;9.842;2022-11-15T00:44:34;9.90;99.90
45849;DHT22;31567;54.600;9.842;2022-11-15T00:48:13;9.90;99.90
45849;DHT22;31567;54.600;9.842;2022-11-15T00:51:53;9.90;99.90
45849;DHT22;31567;54.600;9.842;2022-11-15T00:55:32;9.90;99.90
45849;DHT22;31567;54.600;9.842;2022-11-15T00:59:12;9.90;99.90
45849;DHT22;31567;54.600;9.842;2022-11-15T01:02:51;9.80;99.90
45849;DHT22;31567;54.600;9.842;2022-11-15T01:06:31;9.70;99.90
45849;DHT22;31567;54.600;9.842;2022-11-15T01:10:11;9.80;99.90
45849;DHT22;31567;54.600;9.842;2022-11-15T01:13:50;9.80;99.90
45849;DHT22;31567;54.600;9.842;2022-11-15T01:17:30;9.70;99.90
45849;DHT22;31567;54.600;9.842;2022-11-15T01:21:16;9.80;99.90
45849;DHT22;31567;54.600;9.842;2022-11-15T01:24:55;9.70;99.90
45849;DHT22;31567;54.600;9.842;2022-11-15T01:28:37;9.70;99.90
45849;DHT22;31567;54.600;9.842;2022-11-15T01:32:17;9.70;99.90
45849;DHT22;31567;54.600;9.842;2022-11-15T01:35:57;9.70;99.90
45849;DHT22;31567;54.600;9.842;2022-11-15T01:39:36;9.70;99.90
45849;DHT22;31567;54.600;9.842;2022-11-15T01:43:31;9.60;99.90
45849;DHT22;31567;54.600;9.842;2022-11-15T01:47:24;9.60;99.90
45849;DHT22;31567;54.600;9.842;2022-11-15T01:51:08;9.60;99.90
45849;DHT22;31567;54.600;9.842;2022-11-15T01:54:56;9.60;99.90
45849;DHT22;31567;54.600;9.842;2022-11-15T01:58:38;9.60;99.90
45849;DHT22;31567;54.600;9.842;2022-11-15T02:02:18;9.50;99.90
45849;DHT22;31567;54.600;9.842;2022-11-15T02:05:58;9.50;99.90
45849;DHT22;31567;54.600;9.842;2022-11-15T02:09:38;9.50;99.90
45849;DHT22;31567;54.600;9.842;2022-11-15T02:13:18;9.50;99.90
45849;DHT22;31567;54.600;9.842;2022-11-15T02:17:11;9.40;99.90
45849;DHT22;31567;54.600;9.842;2022-11-15T02:21:35;9.50;99.90
45849;DHT22;31567;54.600;9.842;2022-11-15T02:33:23;9.40;99.90
45849;DHT22;31567;54.600;9.842;2022-11-15T02:41:26;9.40;99.90
45849;DHT22;31567;54.600;9.842;2022-11-15T02:45:13;9.40;99.90
45849;DHT22;31567;54.600;9.842;2022-11-15T02:48:55;9.40;99.90
45849;DHT22;31567;54.600;9.842;2022-11-15T02:52:35;9.40;99.90
45849;DHT22;31567;54.600;9.842;2022-11-15T02:56:14;9.40;99.90
45849;DHT22;31567;54.600;9.842;2022-11-15T03:07:29;9.30;99.90
45849;DHT22;31567;54.600;9.842;2022-11-15T03:11:18;9.20;99.90
45849;DHT22;31567;54.600;9.842;2022-11-15T03:15:06;9.20;99.90
45849;DHT22;31567;54.600;9.842;2022-11-15T03:18:59;9.10;99.90
45849;DHT22;31567;54.600;9.842;2022-11-15T03:22:43;9.10;99.90
45849;DHT22;31567;54.600;9.842;2022-11-15T03:26:23;9.00;99.90
45849;DHT22;31567;54.600;9.842;2022-11-15T03:30:07;9.00;99.90
45849;DHT22;31567;54.600;9.842;2022-11-15T03:33:48;9.00;99.90
45849;DHT22;31567;54.600;9.842;2022-11-15T03:37:44;9.00;99.90
45849;DHT22;31567;54.600;9.842;2022-11-15T03:41:29;8.90;99.90
45849;DHT22;31567;54.600;9.842;2022-11-15T03:45:15;8.90;99.90
45849;DHT22;31567;54.600;9.842;2022-11-15T03:49:07;8.80;99.90
45849;DHT22;31567;54.600;9.842;2022-11-15T03:52:49;8.80;99.90
45849;DHT22;31567;54.600;9.842;2022-11-15T03:56:29;8.80;99.90
45849;DHT22;31567;54.600;9.842;2022-11-15T04:00:09;8.70;99.90
45849;DHT22;31567;54.600;9.842;2022-11-15T04:03:49;8.70;99.90
45849;DHT22;31567;54.600;9.842;2022-11-15T04:07:29;8.60;99.90
45849;DHT22;31567;54.600;9.842;2022-11-15T04:11:08;8.60;99.90
45849;DHT22;31567;54.600;9.842;2022-11-15T04:14:48;8.50;99.90
45849;DHT22;31567;54.600;9.842;2022-11-15T04:18:46;8.50;99.90
45849;DHT22;31567;54.600;9.842;2022-11-15T04:22:45;8.40;99.90
45849;DHT22;31567;54.600;9.842;2022-11-15T04:26:43;8.40;99.90
45849;DHT22;31567;54.600;9.842;2022-11-15T04:30:23;8.40;99.90
45849;DHT22;31567;54.600;9.842;2022-11-15T04:34:02;8.40;99.90
45849;DHT22;31567;54.600;9.842;2022-11-15T04:37:42;8.40;99.90
45849;DHT22;31567;54.600;9.842;2022-11-15T04:41:21;8.40;99.90
45849;DHT22;31567;54.600;9.842;2022-11-15T04:45:01;8.40;99.90
45849;DHT22;31567;54.600;9.842;2022-11-15T04:48:41;8.40;99.90
45849;DHT22;31567;54.600;9.842;2022-11-15T04:52:20;8.30;99.90
45849;DHT22;31567;54.600;9.842;2022-11-15T04:56:00;8.30;99.90
45849;DHT22;31567;54.600;9.842;2022-11-15T04:59:39;8.30;99.90
45849;DHT22;31567;54.600;9.842;2022-11-15T05:03:19;8.20;99.90
45849;DHT22;31567;54.600;9.842;2022-11-15T05:07:17;8.10;99.90
45849;DHT22;31567;54.600;9.842;2022-11-15T05:10:56;8.10;99.90
45849;DHT22;31567;54.600;9.842;2022-11-15T05:14:36;8.10;99.90
45849;DHT22;31567;54.600;9.842;2022-11-15T05:18:15;8.10;99.90
45849;DHT22;31567;54.600;9.842;2022-11-15T05:21:55;8.00;99.90
45849;DHT22;31567;54.600;9.842;2022-11-15T05:25:36;8.00;99.90
45849;DHT22;31567;54.600;9.842;2022-11-15T05:29:16;7.90;99.90
45849;DHT22;31567;54.600;9.842;2022-11-15T05:32:55;7.90;99.90
45849;DHT22;31567;54.600;9.842;2022-11-15T05:36:42;7.90;99.90
45849;DHT22;31567;54.600;9.842;2022-11-15T05:40:22;7.90;99.90
45849;DHT22;31567;54.600;9.842;2022-11-15T05:44:03;7.90;99.90
45849;DHT22;31567;54.600;9.842;2022-11-15T05:47:45;7.90;99.90
45849;DHT22;31567;54.600;9.842;2022-11-15T05:51:27;7.90;99.90
45849;DHT22;31567;54.600;9.842;2022-11-15T05:55:09;7.80;99.90
45849;DHT22;31567;54.600;9.842;2022-11-15T05:58:48;7.80;99.90
45849;DHT22;31567;54.600;9.842;2022-11-15T06:02:28;7.80;99.90
45849;DHT22;31567;54.600;9.842;2022-11-15T06:06:08;7.80;99.90
45849;DHT22;31567;54.600;9.842;2022-11-15T06:09:47;7.80;99.90
45849;DHT22;31567;54.600;9.842;2022-11-15T06:13:27;7.80;99.90
45849;DHT22;31567;54.600;9.842;2022-11-15T06:17:06;7.70;99.90
45849;DHT22;31567;54.600;9.842;2022-11-15T06:20:46;7.70;99.90
45849;DHT22;31567;54.600;9.842;2022-11-15T06:24:25;7.70;99.90
45849;DHT22;31567;54.600;9.842;2022-11-15T06:28:05;7.80;99.90
45849;DHT22;31567;54.600;9.842;2022-11-15T06:31:44;7.80;99.90
45849;DHT22;31567;54.600;9.842;2022-11-15T06:35:24;7.90;99.90
45849;DHT22;31567;54.600;9.842;2022-11-15T06:39:04;8.00;99.90
45849;DHT22;31567;54.600;9.842;2022-11-15T06:42:44;8.10;99.90
45849;DHT22;31567;54.600;9.842;2022-11-15T06:46:23;8.30;99.90
45849;DHT22;31567;54.600;9.842;2022-11-15T06:50:03;8.40;99.90
45849;DHT22;31567;54.600;9.842;2022-11-15T06:53:43;8.40;99.90
45849;DHT22;31567;54.600;9.842;2022-11-15T06:57:22;8.50;99.90
45849;DHT22;31567;54.600;9.842;2022-11-15T07:01:07;8.60;99.90
45849;DHT22;31567;54.600;9.842;2022-11-15T07:04:47;8.70;99.90
45849;DHT22;31567;54.600;9.842;2022-11-15T07:08:27;8.80;99.90
45849;DHT22;31567;54.600;9.842;2022-11-15T07:12:07;8.80;99.90
45849;DHT22;31567;54.600;9.842;2022-11-15T07:15:47;8.80;99.90
45849;DHT22;31567;54.600;9.842;2022-11-15T07:19:26;8.90;99.90
45849;DHT22;31567;54.600;9.842;2022-11-15T07:23:06;9.00;99.90
45849;DHT22;31567;54.600;9.842;2022-11-15T07:26:45;9.00;99.90
45849;DHT22;31567;54.600;9.842;2022-11-15T07:30:26;9.10;99.90
45849;DHT22;31567;54.600;9.842;2022-11-15T07:34:06;9.10;99.90
45849;DHT22;31567;54.600;9.842;2022-11-15T07:37:53;9.20;99.90
45849;DHT22;31567;54.600;9.842;2022-11-15T07:41:33;9.30;99.90
45849;DHT22;31567;54.600;9.842;2022-11-15T07:45:12;9.30;99.90
45849;DHT22;31567;54.600;9.842;2022-11-15T07:48:52;9.40;99.90
45849;DHT22;31567;54.600;9.842;2022-11-15T07:52:32;9.40;99.90
45849;DHT22;31567;54.600;9.842;2022-11-15T07:56:12;9.50;99.90
45849;DHT22;31567;54.600;9.842;2022-11-15T07:59:51;9.50;99.90
45849;DHT22;31567;54.600;9.842;2022-11-15T08:03:31;9.60;99.90
45849;DHT22;31567;54.600;9.842;2022-11-15T08:07:11;9.60;99.90
45849;DHT22;31567;54.600;9.842;2022-11-15T08:10:51;9.60;99.90
45849;DHT22;31567;54.600;9.842;2022-11-15T08:14:30;9.60;99.90
45849;DHT22;31567;54.600;9.842;2022-11-15T08:18:12;9.70;99.90
45849;DHT22;31567;54.600;9.842;2022-11-15T08:21:52;9.70;99.90
45849;DHT22;31567;54.600;9.842;2022-11-15T08:25:33;9.70;99.90
45849;DHT22;31567;54.600;9.842;2022-11-15T08:29:13;9.80;99.90
45849;DHT22;31567;54.600;9.842;2022-11-15T08:32:55;9.80;99.90
45849;DHT22;31567;54.600;9.842;2022-11-15T08:36:35;9.80;99.90
45849;DHT22;31567;54.600;9.842;2022-11-15T08:40:15;9.90;99.90
45849;DHT22;31567;54.600;9.842;2022-11-15T08:43:55;9.90;99.90
45849;DHT22;31567;54.600;9.842;2022-11-15T08:47:35;9.90;99.90
45849;DHT22;31567;54.600;9.842;2022-11-15T08:51:14;10.00;99.90
45849;DHT22;31567;54.600;9.842;2022-11-15T08:54:54;10.00;99.90
45849;DHT22;31567;54.600;9.842;2022-11-15T08:58:33;10.00;99.90
45849;DHT22;31567;54.600;9.842;2022-11-15T09:02:13;10.00;99.90
45849;DHT22;31567;54.600;9.842;2022-11-15T09:05:58;10.00;99.90
45849;DHT22;31567;54.600;9.842;2022-11-15T09:09:38;10.00;99.90
45849;DHT22;31567;54.600;9.842;2022-11-15T09:13:17;10.00;99.90
45849;DHT22;31567;54.600;9.842;2022-11-15T09:16:57;10.00;99.90
45849;DHT22;31567;54.600;9.842;2022-11-15T09:20:37;10.10;99.90
45849;DHT22;31567;54.600;9.842;2022-11-15T09:24:17;10.00;99.90
45849;DHT22;31567;54.600;9.842;2022-11-15T09:27:57;10.10;99.90
45849;DHT22;31567;54.600;9.842;2022-11-15T09:31:37;10.10;99.90
45849;DHT22;31567;54.600;9.842;2022-11-15T09:35:16;10.10;99.90
45849;DHT22;31567;54.600;9.842;2022-11-15T09:38:57;10.20;99.90
45849;DHT22;31567;54.600;9.842;2022-11-15T09:47:08;10.20;99.90
45849;DHT22;31567;54.600;9.842;2022-11-15T09:50:50;10.30;99.90
45849;DHT22;31567;54.600;9.842;2022-11-15T09:54:36;10.40;99.90
45849;DHT22;31567;54.600;9.842;2022-11-15T09:58:36;10.40;99.90
45849;DHT22;31567;54.600;9.842;2022-11-15T10:02:49;10.40;99.90
45849;DHT22;31567;54.600;9.842;2022-11-15T10:06:31;10.50;99.90
45849;DHT22;31567;54.600;9.842;2022-11-15T10:14:20;10.60;99.90
45849;DHT22;31567;54.600;9.842;2022-11-15T10:18:13;10.50;99.90
45849;DHT22;31567;54.600;9.842;2022-11-15T10:25:36;10.60;99.90
45849;DHT22;31567;54.600;9.842;2022-11-15T10:29:19;10.60;99.90
45849;DHT22;31567;54.600;9.842;2022-11-15T10:36:58;10.70;99.90
45849;DHT22;31567;54.600;9.842;2022-11-15T10:40:40;10.60;99.90
45849;DHT22;31567;54.600;9.842;2022-11-15T10:44:30;10.70;99.90
45849;DHT22;31567;54.600;9.842;2022-11-15T10:52:16;10.80;99.90
45849;DHT22;31567;54.600;9.842;2022-11-15T10:55:57;10.80;99.90
45849;DHT22;31567;54.600;9.842;2022-11-15T10:59:38;10.80;99.90
45849;DHT22;31567;54.600;9.842;2022-11-15T11:03:38;10.80;99.90
45849;DHT22;31567;54.600;9.842;2022-11-15T11:07:23;10.80;99.90
45849;DHT22;31567;54.600;9.842;2022-11-15T11:11:04;10.80;99.90
45849;DHT22;31567;54.600;9.842;2022-11-15T11:14:44;10.90;99.90
45849;DHT22;31567;54.600;9.842;2022-11-15T11:18:28;10.90;99.90
45849;DHT22;31567;54.600;9.842;2022-11-15T11:22:18;11.00;99.90
45849;DHT22;31567;54.600;9.842;2022-11-15T11:30:20;11.00;99.90
45849;DHT22;31567;54.600;9.842;2022-11-15T11:50:26;11.20;99.90
45849;DHT22;31567;54.600;9.842;2022-11-15T11:54:19;11.20;99.90
45849;DHT22;31567;54.600;9.842;2022-11-15T12:01:51;11.30;99.90
45849;DHT22;31567;54.600;9.842;2022-11-15T12:05:54;11.30;99.90
45849;DHT22;31567;54.600;9.842;2022-11-15T12:09:39;11.40;99.90
45849;DHT22;31567;54.600;9.842;2022-11-15T12:13:24;11.40;99.90
45849;DHT22;31567;54.600;9.842;2022-11-15T12:17:04;11.40;99.90
45849;DHT22;31567;54.600;9.842;2022-11-15T12:21:04;11.50;99.90
45849;DHT22;31567;54.600;9.842;2022-11-15T12:24:50;11.60;99.90
45849;DHT22;31567;54.600;9.842;2022-11-15T12:28:41;11.60;99.90
45849;DHT22;31567;54.600;9.842;2022-11-15T12:32:33;11.70;99.90
45849;DHT22;31567;54.600;9.842;2022-11-15T12:40:21;11.60;99.90
45849;DHT22;31567;54.600;9.842;2022-11-15T12:44:02;11.70;99.90
45849;DHT22;31567;54.600;9.842;2022-11-15T12:47:42;11.70;99.90
45849;DHT22;31567;54.600;9.842;2022-11-15T12:55:31;11.70;99.90
45849;DHT22;31567;54.600;9.842;2022-11-15T13:03:28;11.70;99.90
45849;DHT22;31567;54.600;9.842;2022-11-15T13:11:46;11.70;99.90
45849;DHT22;31567;54.600;9.842;2022-11-15T13:15:53;11.80;99.90
45849;DHT22;31567;54.600;9.842;2022-11-15T13:19:36;11.80;99.90
45849;DHT22;31567;54.600;9.842;2022-11-15T13:23:15;11.80;99.90
45849;DHT22;31567;54.600;9.842;2022-11-15T13:26:55;11.80;99.90
45849;DHT22;31567;54.600;9.842;2022-11-15T13:30:36;11.80;99.90
45849;DHT22;31567;54.600;9.842;2022-11-15T13:34:27;11.90;99.90
45849;DHT22;31567;54.600;9.842;2022-11-15T13:38:30;11.80;99.90
45849;DHT22;31567;54.600;9.842;2022-11-15T13:42:15;11.70;99.90
45849;DHT22;31567;54.600;9.842;2022-11-15T13:49:57;11.80;99.90
45849;DHT22;31567;54.600;9.842;2022-11-15T13:53:39;11.80;99.90
45849;DHT22;31567;54.600;9.842;2022-11-15T13:57:25;11.80;99.90
45849;DHT22;31567;54.600;9.842;2022-11-15T14:01:14;11.80;99.90
45849;DHT22;31567;54.600;9.842;2022-11-15T14:08:41;11.90;99.90
45849;DHT22;31567;54.600;9.842;2022-11-15T14:16:20;11.80;99.90
45849;DHT22;31567;54.600;9.842;2022-11-15T14:20:00;11.80;99.90
45849;DHT22;31567;54.600;9.842;2022-11-15T14:23:40;11.80;99.90
45849;DHT22;31567;54.600;9.842;2022-11-15T14:27:26;11.90;99.90
45849;DHT22;31567;54.600;9.842;2022-11-15T14:31:11;11.80;99.90
45849;DHT22;31567;54.600;9.842;2022-11-15T14:34:57;11.90;99.90
45849;DHT22;31567;54.600;9.842;2022-11-15T14:38:37;11.90;99.90
45849;DHT22;31567;54.600;9.842;2022-11-15T14:42:17;11.90;99.90
45849;DHT22;31567;54.600;9.842;2022-11-15T14:45:57;11.90;99.90
45849;DHT22;31567;54.600;9.842;2022-11-15T14:49:37;11.90;99.90
45849;DHT22;31567;54.600;9.842;2022-11-15T14:53:17;11.90;99.90
45849;DHT22;31567;54.600;9.842;2022-11-15T14:56:57;11.90;99.90
45849;DHT22;31567;54.600;9.842;2022-11-15T15:00:38;11.90;99.90
45849;DHT22;31567;54.600;9.842;2022-11-15T15:04:18;12.00;99.90
45849;DHT22;31567;54.600;9.842;2022-11-15T15:07:58;11.90;99.90
45849;DHT22;31567;54.600;9.842;2022-11-15T15:11:38;11.90;99.90
45849;DHT22;31567;54.600;9.842;2022-11-15T15:15:23;11.90;99.90
45849;DHT22;31567;54.600;9.842;2022-11-15T15:19:03;11.90;99.90
45849;DHT22;31567;54.600;9.842;2022-11-15T15:22:43;11.90;99.90
45849;DHT22;31567;54.600;9.842;2022-11-15T15:26:23;11.90;99.90
45849;DHT22;31567;54.600;9.842;2022-11-15T15:30:03;12.00;99.90
45849;DHT22;31567;54.600;9.842;2022-11-15T15:33:43;11.90;99.90
45849;DHT22;31567;54.600;9.842;2022-11-15T15:37:25;11.90;99.90
45849;DHT22;31567;54.600;9.842;2022-11-15T15:41:09;11.90;99.90
45849;DHT22;31567;54.600;9.842;2022-11-15T15:44:50;11.90;99.90
45849;DHT22;31567;54.600;9.842;2022-11-15T15:48:29;11.90;99.90
45849;DHT22;31567;54.600;9.842;2022-11-15T15:52:09;11.90;99.90
45849;DHT22;31567;54.600;9.842;2022-11-15T15:55:49;11.90;99.90
45849;DHT22;31567;54.600;9.842;2022-11-15T15:59:28;11.90;99.90
45849;DHT22;31567;54.600;9.842;2022-11-15T16:03:08;11.80;99.90
45849;DHT22;31567;54.600;9.842;2022-11-15T16:06:48;11.80;99.90
45849;DHT22;31567;54.600;9.842;2022-11-15T16:10:31;11.70;99.90
45849;DHT22;31567;54.600;9.842;2022-11-15T16:14:13;11.80;99.90
45849;DHT22;31567;54.600;9.842;2022-11-15T16:17:53;11.80;99.90
45849;DHT22;31567;54.600;9.842;2022-11-15T16:21:33;11.80;99.90
45849;DHT22;31567;54.600;9.842;2022-11-15T16:25:13;11.80;99.90
45849;DHT22;31567;54.600;9.842;2022-11-15T16:28:53;11.80;99.90
45849;DHT22;31567;54.600;9.842;2022-11-15T16:32:32;11.80;99.90
45849;DHT22;31567;54.600;9.842;2022-11-15T16:36:21;11.80;99.90
45849;DHT22;31567;54.600;9.842;2022-11-15T16:40:01;11.90;99.90
45849;DHT22;31567;54.600;9.842;2022-11-15T16:43:41;11.80;99.90
45849;DHT22;31567;54.600;9.842;2022-11-15T16:47:20;11.70;99.90
45849;DHT22;31567;54.600;9.842;2022-11-15T16:51:01;11.80;99.90
45849;DHT22;31567;54.600;9.842;2022-11-15T16:54:42;11.80;99.90
45849;DHT22;31567;54.600;9.842;2022-11-15T16:58:23;11.80;99.90
45849;DHT22;31567;54.600;9.842;2022-11-15T17:02:02;11.80;99.90
45849;DHT22;31567;54.600;9.842;2022-11-15T17:05:42;11.90;99.90
45849;DHT22;31567;54.600;9.842;2022-11-15T17:09:22;11.90;99.90
45849;DHT22;31567;54.600;9.842;2022-11-15T17:13:04;11.90;99.90
45849;DHT22;31567;54.600;9.842;2022-11-15T17:16:44;11.90;99.90
45849;DHT22;31567;54.600;9.842;2022-11-15T17:20:24;12.00;99.90
45849;DHT22;31567;54.600;9.842;2022-11-15T17:24:04;12.00;99.90
45849;DHT22;31567;54.600;9.842;2022-11-15T17:27:44;12.00;99.90
45849;DHT22;31567;54.600;9.842;2022-11-15T17:31:23;12.00;99.90
45849;DHT22;31567;54.600;9.842;2022-11-15T17:35:04;12.00;99.90
45849;DHT22;31567;54.600;9.842;2022-11-15T17:38:47;12.00;99.90
45849;DHT22;31567;54.600;9.842;2022-11-15T17:42:30;12.00;99.90
45849;DHT22;31567;54.600;9.842;2022-11-15T17:46:16;12.00;99.90
45849;DHT22;31567;54.600;9.842;2022-11-15T17:49:57;12.00;99.90
45849;DHT22;31567;54.600;9.842;2022-11-15T17:53:38;11.90;99.90
45849;DHT22;31567;54.600;9.842;2022-11-15T17:57:18;11.90;99.90
45849;DHT22;31567;54.600;9.842;2022-11-15T18:01:07;11.90;99.90
45849;DHT22;31567;54.600;9.842;2022-11-15T18:04:47;11.90;99.90
45849;DHT22;31567;54.600;9.842;2022-11-15T18:08:26;11.90;99.90
45849;DHT22;31567;54.600;9.842;2022-11-15T18:12:06;11.90;99.90
45849;DHT22;31567;54.600;9.842;2022-11-15T18:15:53;11.90;99.90
45849;DHT22;31567;54.600;9.842;2022-11-15T18:19:33;11.80;99.90
45849;DHT22;31567;54.600;9.842;2022-11-15T18:23:13;11.80;99.90
45849;DHT22;31567;54.600;9.842;2022-11-15T18:26:52;11.80;99.90
45849;DHT22;31567;54.600;9.842;2022-11-15T18:30:32;11.80;99.90
45849;DHT22;31567;54.600;9.842;2022-11-15T18:34:11;11.80;99.90
45849;DHT22;31567;54.600;9.842;2022-11-15T18:37:51;11.70;99.90
45849;DHT22;31567;54.600;9.842;2022-11-15T18:41:32;11.80;99.90
45849;DHT22;31567;54.600;9.842;2022-11-15T18:45:12;11.80;99.90
45849;DHT22;31567;54.600;9.842;2022-11-15T18:48:53;11.70;99.90
45849;DHT22;31567;54.600;9.842;2022-11-15T18:52:33;11.60;99.90
45849;DHT22;31567;54.600;9.842;2022-11-15T18:56:17;11.60;99.90
45849;DHT22;31567;54.600;9.842;2022-11-15T18:59:57;11.60;99.90
45849;DHT22;31567;54.600;9.842;2022-11-15T19:03:39;11.60;99.90
45849;DHT22;31567;54.600;9.842;2022-11-15T19:07:19;11.60;99.90
45849;DHT22;31567;54.600;9.842;2022-11-15T19:14:51;11.40;99.90
45849;DHT22;31567;54.600;9.842;2022-11-15T19:18:32;11.40;99.90
45849;DHT22;31567;54.600;9.842;2022-11-15T19:22:11;11.30;99.90
45849;DHT22;31567;54.600;9.842;2022-11-15T19:25:55;11.30;99.90
45849;DHT22;31567;54.600;9.842;2022-11-15T19:29:35;11.30;99.90
45849;DHT22;31567;54.600;9.842;2022-11-15T19:33:15;11.20;99.90
45849;DHT22;31567;54.600;9.842;2022-11-15T19:36:54;11.30;99.90
45849;DHT22;31567;54.600;9.842;2022-11-15T19:40:34;11.30;99.90
45849;DHT22;31567;54.600;9.842;2022-11-15T19:44:14;11.30;99.90
45849;DHT22;31567;54.600;9.842;2022-11-15T19:47:53;11.20;99.90
45849;DHT22;31567;54.600;9.842;2022-11-15T19:51:33;11.20;99.90
45849;DHT22;31567;54.600;9.842;2022-11-15T19:55:13;11.20;99.90
45849;DHT22;31567;54.600;9.842;2022-11-15T19:58:53;11.10;99.90
45849;DHT22;31567;54.600;9.842;2022-11-15T20:02:33;11.10;99.90
45849;DHT22;31567;54.600;9.842;2022-11-15T20:06:16;11.10;99.90
45849;DHT22;31567;54.600;9.842;2022-11-15T20:09:55;11.10;99.90
45849;DHT22;31567;54.600;9.842;2022-11-15T20:13:35;11.20;99.90
45849;DHT22;31567;54.600;9.842;2022-11-15T20:17:15;11.10;99.90
45849;DHT22;31567;54.600;9.842;2022-11-15T20:20:54;11.10;99.90
45849;DHT22;31567;54.600;9.842;2022-11-15T20:24:36;11.10;99.90
45849;DHT22;31567;54.600;9.842;2022-11-15T20:28:21;11.00;99.90
45849;DHT22;31567;54.600;9.842;2022-11-15T20:32:01;11.00;99.90
45849;DHT22;31567;54.600;9.842;2022-11-15T20:35:40;10.90;99.90
45849;DHT22;31567;54.600;9.842;2022-11-15T20:39:20;10.90;99.90
45849;DHT22;31567;54.600;9.842;2022-11-15T20:42:59;10.80;99.90
45849;DHT22;31567;54.600;9.842;2022-11-15T20:46:39;10.90;99.90
45849;DHT22;31567;54.600;9.842;2022-11-15T20:50:18;10.80;99.90
45849;DHT22;31567;54.600;9.842;2022-11-15T20:53:58;10.90;99.90
45849;DHT22;31567;54.600;9.842;2022-11-15T20:57:37;10.80;99.90
45849;DHT22;31567;54.600;9.842;2022-11-15T21:01:19;10.80;99.90
45849;DHT22;31567;54.600;9.842;2022-11-15T21:05:05;10.80;99.90
45849;DHT22;31567;54.600;9.842;2022-11-15T21:08:45;10.80;99.90
45849;DHT22;31567;54.600;9.842;2022-11-15T21:12:43;10.80;99.90
45849;DHT22;31567;54.600;9.842;2022-11-15T21:16:23;10.70;99.90
45849;DHT22;31567;54.600;9.842;2022-11-15T21:20:03;10.70;99.90
45849;DHT22;31567;54.600;9.842;2022-11-15T21:23:42;10.80;99.90
45849;DHT22;31567;54.600;9.842;2022-11-15T21:27:22;10.70;99.90
45849;DHT22;31567;54.600;9.842;2022-11-15T21:31:01;10.70;99.90
45849;DHT22;31567;54.600;9.842;2022-11-15T21:34:41;10.70;99.90
45849;DHT22;31567;54.600;9.842;2022-11-15T21:38:21;10.70;99.90
45849;DHT22;31567;54.600;9.842;2022-11-15T21:42:04;10.70;99.90
45849;DHT22;31567;54.600;9.842;2022-11-15T21:45:57;10.80;99.90
45849;DHT22;31567;54.600;9.842;2022-11-15T21:49:38;10.80;99.90
45849;DHT22;31567;54.600;9.842;2022-11-15T21:53:18;10.70;99.90
45849;DHT22;31567;54.600;9.842;2022-11-15T21:56:57;10.70;99.90
45849;DHT22;31567;54.600;9.842;2022-11-15T22:00:37;10.60;99.90
45849;DHT22;31567;54.600;9.842;2022-11-15T22:04:35;10.60;99.90
45849;DHT22;31567;54.600;9.842;2022-11-15T22:08:15;10.70;99.90
45849;DHT22;31567;54.600;9.842;2022-11-15T22:11:54;10.60;99.90
45849;DHT22;31567;54.600;9.842;2022-11-15T22:15:34;10.60;99.90
45849;DHT22;31567;54.600;9.842;2022-11-15T22:19:13;10.60;99.90
45849;DHT22;31567;54.600;9.842;2022-11-15T22:22:53;10.60;99.90
45849;DHT22;31567;54.600;9.842;2022-11-15T22:26:32;10.60;99.90
45849;DHT22;31567;54.600;9.842;2022-11-15T22:30:12;10.60;99.90
45849;DHT22;31567;54.600;9.842;2022-11-15T22:33:52;10.60;99.90
45849;DHT22;31567;54.600;9.842;2022-11-15T22:37:31;10.60;99.90
45849;DHT22;31567;54.600;9.842;2022-11-15T22:41:11;10.60;99.90
45849;DHT22;31567;54.600;9.842;2022-11-15T22:44:51;10.60;99.90
45849;DHT22;31567;54.600;9.842;2022-11-15T22:48:32;10.50;99.90
45849;DHT22;31567;54.600;9.842;2022-11-15T22:52:12;10.60;99.90
45849;DHT22;31567;54.600;9.842;2022-11-15T22:55:55;10.60;99.90
45849;DHT22;31567;54.600;9.842;2022-11-15T22:59:34;10.50;99.90
45849;DHT22;31567;54.600;9.842;2022-11-15T23:03:16;10.50;99.90
45849;DHT22;31567;54.600;9.842;2022-11-15T23:06:56;10.50;99.90
45849;DHT22;31567;54.600;9.842;2022-11-15T23:10:37;10.50;99.90
45849;DHT22;31567;54.600;9.842;2022-11-15T23:14:35;10.50;99.90
45849;DHT22;31567;54.600;9.842;2022-11-15T23:18:15;10.50;99.90
45849;DHT22;31567;54.600;9.842;2022-11-15T23:21:54;10.50;99.90
45849;DHT22;31567;54.600;9.842;2022-11-15T23:25:58;10.40;99.90
45849;DHT22;31567;54.600;9.842;2022-11-15T23:29:38;10.40;99.90
45849;DHT22;31567;54.600;9.842;2022-11-15T23:33:37;10.50;99.90
45849;DHT22;31567;54.600;9.842;2022-11-15T23:37:35;10.50;99.90
45849;DHT22;31567;54.600;9.842;2022-11-15T23:41:14;10.50;99.90
45849;DHT22;31567;54.600;9.842;2022-11-15T23:44:54;10.40;99.90
45849;DHT22;31567;54.600;9.842;2022-11-15T23:48:34;10.50;99.90
45849;DHT22;31567;54.600;9.842;2022-11-15T23:52:14;10.40;99.90
45849;DHT22;31567;54.600;9.842;2022-11-15T23:56:00;10.40;99.90
45849;DHT22;31567;54.600;9.842;2022-11-15T23:59:41;10.40;99.90
